Time;durP1;ratioP1;P1;durP2;ratioP2;P2;SDS_P1;SDS_P2;PMS_P1;PMS_P2;Temp;Humidity;BMP_temperature;BMP_pressure;BME280_temperature;BME280_humidity;BME280_pressure;Samples;Min_cycle;Max_cycle;Signal;HPM_P1;HPM_P2
2023/11/09 00:02:48;;;;;;;1.08;0.40;;;;;;;10.96;63.80;99745.91;10329356;28;20053;-85
2023/11/09 00:07:49;;;;;;;2.83;1.30;;;;;;;10.95;63.60;99741.56;10347090;28;20041;-85
2023/11/09 00:12:53;;;;;;;1.98;0.70;;;;;;;11.02;63.73;99734.38;10351564;28;20061;-85
2023/11/09 00:17:56;;;;;;;2.97;0.98;;;;;;;11.03;63.50;99727.97;10336602;28;20038;-84
2023/11/09 00:22:57;;;;;;;3.20;0.60;;;;;;;11.00;63.60;99714.91;10331918;28;20312;-82
2023/11/09 00:27:59;;;;;;;3.70;0.95;;;;;;;10.96;64.05;99702.88;10341175;28;20181;-82
2023/11/09 00:33:00;;;;;;;2.30;0.80;;;;;;;10.93;63.71;99693.34;10352787;28;20110;-85
2023/11/09 00:38:04;;;;;;;4.10;0.88;;;;;;;11.00;64.07;99691.56;10347235;28;20500;-86
2023/11/09 00:43:06;;;;;;;6.82;1.10;;;;;;;10.98;63.82;99680.16;10336150;28;20060;-85
2023/11/09 00:48:08;;;;;;;3.17;0.98;;;;;;;10.95;63.97;99677.84;10320172;28;20057;-86
2023/11/09 00:53:09;;;;;;;3.65;0.70;;;;;;;10.95;64.20;99667.09;10329805;28;20136;-84
2023/11/09 00:58:11;;;;;;;4.05;0.90;;;;;;;10.89;64.38;99666.00;10329942;28;20050;-85
2023/11/09 01:03:13;;;;;;;3.58;0.95;;;;;;;10.91;64.38;99655.06;10328115;28;20520;-83
2023/11/09 01:08:15;;;;;;;2.47;0.88;;;;;;;10.90;64.36;99656.09;10326426;28;20045;-86
2023/11/09 01:13:17;;;;;;;1.52;0.60;;;;;;;10.93;64.17;99649.50;10344169;28;20054;-78
2023/11/09 01:18:18;;;;;;;1.67;0.68;;;;;;;11.04;63.92;99651.66;10328999;28;20066;-79
2023/11/09 01:23:20;;;;;;;4.90;0.68;;;;;;;11.03;64.40;99633.84;10323945;28;20057;-78
2023/11/09 01:28:21;;;;;;;2.95;0.70;;;;;;;11.02;64.10;99626.78;10327382;28;20384;-78
2023/11/09 01:33:23;;;;;;;2.10;1.05;;;;;;;11.04;63.97;99624.75;10332420;28;20045;-78
2023/11/09 01:38:25;;;;;;;2.67;0.80;;;;;;;10.97;64.11;99616.63;10342546;28;20065;-79
2023/11/09 01:43:26;;;;;;;3.53;0.80;;;;;;;10.90;63.97;99618.47;10343059;28;20054;-78
2023/11/09 01:48:28;;;;;;;2.97;0.98;;;;;;;10.98;64.05;99604.88;10331593;28;20112;-78
2023/11/09 01:53:30;;;;;;;1.85;0.60;;;;;;;10.97;64.10;99607.75;10326481;28;20192;-79
2023/11/09 01:58:34;;;;;;;1.95;0.77;;;;;;;10.94;64.02;99587.47;10323947;28;20133;-79
2023/11/09 02:03:35;;;;;;;3.20;1.45;;;;;;;10.98;63.82;99585.19;10322296;28;20049;-78
2023/11/09 02:08:37;;;;;;;3.70;0.80;;;;;;;10.91;63.89;99577.09;10342602;28;20053;-78
2023/11/09 02:13:39;;;;;;;2.35;1.10;;;;;;;10.67;64.56;99589.13;10346432;28;20485;-78
2023/11/09 02:18:40;;;;;;;5.65;1.25;;;;;;;10.52;64.94;99568.56;10330178;28;20392;-79
2023/11/09 02:23:47;;;;;;;3.30;1.55;;;;;;;10.48;64.87;99558.38;10341130;28;20052;-78
2023/11/09 02:28:52;;;;;;;4.38;1.77;;;;;;;10.35;65.44;99545.69;10358785;28;20037;-76
2023/11/09 02:33:54;;;;;;;5.22;1.08;;;;;;;10.25;65.37;99546.00;10333307;28;20046;-76
2023/11/09 02:38:55;;;;;;;4.07;1.25;;;;;;;10.16;65.33;99539.09;10352152;28;20133;-76
2023/11/09 02:43:57;;;;;;;4.20;1.35;;;;;;;10.13;65.18;99523.38;10338047;28;20057;-76
2023/11/09 02:48:58;;;;;;;2.25;1.42;;;;;;;10.10;65.41;99521.06;10328923;28;20054;-76
2023/11/09 02:54:00;;;;;;;3.20;1.00;;;;;;;10.12;65.86;99511.78;10306341;28;20135;-76
2023/11/09 02:59:03;;;;;;;2.85;1.23;;;;;;;10.09;65.87;99509.50;10328202;28;20035;-76
2023/11/09 03:04:05;;;;;;;3.90;1.33;;;;;;;10.14;65.57;99506.22;10331699;28;20058;-75
2023/11/09 03:09:08;;;;;;;3.13;1.00;;;;;;;10.09;65.76;99489.84;10314710;28;20129;-75
2023/11/09 03:14:10;;;;;;;6.45;1.10;;;;;;;10.03;65.72;99486.13;10320261;28;20054;-76
2023/11/09 03:19:12;;;;;;;5.03;1.20;;;;;;;9.98;65.89;99487.72;10326947;28;20137;-76
2023/11/09 03:24:14;;;;;;;3.92;1.73;;;;;;;9.88;66.26;99478.13;10329153;28;20046;-75
2023/11/09 03:29:15;;;;;;;3.30;1.70;;;;;;;9.86;66.54;99468.63;10301832;28;20042;-76
2023/11/09 03:34:17;;;;;;;5.10;1.77;;;;;;;9.89;66.30;99462.84;10291581;28;20062;-85
2023/11/09 03:39:19;;;;;;;3.60;1.60;;;;;;;9.88;66.20;99464.69;10280360;28;20043;-85
2023/11/09 03:44:21;;;;;;;3.53;1.17;;;;;;;9.70;66.92;99472.38;10310552;28;20066;-80
2023/11/09 03:49:22;;;;;;;4.15;1.92;;;;;;;9.72;67.07;99465.81;10292026;28;20047;-82
2023/11/09 03:54:24;;;;;;;3.13;1.23;;;;;;;9.76;66.70;99449.31;10333664;28;20043;-85
2023/11/09 03:59:25;;;;;;;3.33;1.33;;;;;;;9.81;66.84;99438.81;10351926;28;20489;-85
2023/11/09 04:04:27;;;;;;;3.40;1.17;;;;;;;9.83;66.84;99436.78;10346701;28;20128;-83
2023/11/09 04:09:29;;;;;;;4.43;1.13;;;;;;;9.87;66.41;99425.47;10345598;28;20042;-83
2023/11/09 04:14:30;;;;;;;7.20;2.00;;;;;;;9.96;66.47;99422.66;10347743;28;20556;-78
2023/11/09 04:19:32;;;;;;;2.50;0.88;;;;;;;9.99;66.36;99417.72;10344067;28;20490;-78
2023/11/09 04:24:34;;;;;;;4.07;0.70;;;;;;;10.11;66.35;99409.94;10339171;28;20040;-78
2023/11/09 04:29:36;;;;;;;5.18;0.98;;;;;;;10.16;66.25;99398.63;10325085;28;20445;-78
2023/11/09 04:34:38;;;;;;;1.23;0.70;;;;;;;10.20;65.44;99400.69;10325656;28;20046;-78
2023/11/09 04:39:46;;;;;;;4.53;1.02;;;;;;;10.28;65.49;99386.28;10337373;28;20052;-77
2023/11/09 04:44:50;;;;;;;2.15;0.80;;;;;;;10.36;65.00;99388.00;10346524;28;20050;-85
2023/11/09 04:49:58;;;;;;;1.67;0.77;;;;;;;10.46;65.21;99380.41;10347321;28;20101;-85
2023/11/09 04:55:14;;;;;;;2.33;0.63;;;;;;;10.56;64.63;99388.94;10323873;28;20432;-78
2023/11/09 05:10:58;;;;;;;2.45;0.50;;;;;;;10.58;64.76;99383.38;10306304;28;20048;-85
2023/11/09 05:16:00;;;;;;;4.28;0.98;;;;;;;10.70;64.76;99387.13;10353477;28;20046;-85
2023/11/09 05:21:02;;;;;;;8.60;0.88;;;;;;;10.74;64.38;99383.00;10341986;28;20038;-83
2023/11/09 05:26:04;;;;;;;4.93;0.65;;;;;;;10.75;63.95;99382.00;10337125;28;20125;-85
2023/11/09 05:31:06;;;;;;;3.38;0.73;;;;;;;10.84;63.78;99383.47;10328612;28;20052;-85
2023/11/09 05:36:08;;;;;;;3.20;0.70;;;;;;;10.81;64.09;99375.81;10328939;28;20050;-85
2023/11/09 05:41:10;;;;;;;2.28;0.60;;;;;;;10.75;64.33;99362.34;10327407;28;20046;-82
2023/11/09 05:46:12;;;;;;;3.03;1.02;;;;;;;10.85;63.58;99343.97;10327883;28;20078;-83
2023/11/09 05:51:20;;;;;;;1.65;0.60;;;;;;;10.94;63.57;99340.09;10333666;28;20058;-80
2023/11/09 05:56:23;;;;;;;4.63;0.70;;;;;;;10.96;63.25;99348.78;10361415;28;20081;-78
2023/11/09 06:01:24;;;;;;;2.28;0.70;;;;;;;10.91;63.67;99351.22;10377114;28;20430;-78
2023/11/09 06:06:26;;;;;;;2.10;0.73;;;;;;;10.85;63.79;99346.66;10349143;28;20050;-78
2023/11/09 06:11:31;;;;;;;2.30;0.52;;;;;;;10.73;64.28;99349.13;10356769;28;20069;-78
2023/11/09 06:16:33;;;;;;;1.98;0.70;;;;;;;10.68;64.05;99338.97;10342360;28;20125;-78
2023/11/09 06:21:35;;;;;;;2.20;0.85;;;;;;;10.72;64.42;99336.69;10355947;28;20042;-79
2023/11/09 06:26:37;;;;;;;3.22;0.70;;;;;;;10.59;64.72;99329.44;10351948;28;20046;-82
2023/11/09 06:31:38;;;;;;;1.73;0.57;;;;;;;10.62;64.27;99330.88;10385650;28;20042;-82
2023/11/09 06:36:45;;;;;;;1.15;0.55;;;;;;;10.57;64.23;99331.50;10400681;28;20069;-81
2023/11/09 06:41:50;;;;;;;1.37;0.63;;;;;;;10.66;64.52;99332.97;10396230;28;20078;-82
2023/11/09 06:46:52;;;;;;;1.48;0.52;;;;;;;10.73;64.19;99324.09;10373883;28;20105;-80
2023/11/09 06:51:53;;;;;;;1.80;0.63;;;;;;;10.68;64.09;99328.22;10370262;28;20097;-80
2023/11/09 06:56:55;;;;;;;2.28;0.80;;;;;;;10.63;64.70;99330.69;10382708;28;20042;-81
2023/11/09 07:01:58;;;;;;;1.23;0.70;;;;;;;10.60;64.75;99335.63;10387448;28;20065;-79
2023/11/09 07:07:00;;;;;;;2.42;0.60;;;;;;;10.58;64.74;99335.81;10338543;28;20038;-85
2023/11/09 07:12:02;;;;;;;3.47;0.60;;;;;;;10.46;65.08;99346.31;10331746;28;20048;-85
2023/11/09 07:17:06;;;;;;;3.78;0.60;;;;;;;10.32;65.66;99341.91;10339324;28;20413;-86
2023/11/09 07:22:10;;;;;;;6.13;0.80;;;;;;;10.10;66.32;99350.03;10318151;28;20046;-85
2023/11/09 07:27:12;;;;;;;2.17;0.70;;;;;;;9.95;67.04;99360.03;10322030;28;20092;-84
2023/11/09 07:32:14;;;;;;;1.38;0.60;;;;;;;9.75;67.81;99361.78;10336825;28;20162;-86
2023/11/09 07:37:15;;;;;;;7.75;0.98;;;;;;;9.58;68.54;99366.59;10332000;28;20069;-85
2023/11/09 07:42:17;;;;;;;2.78;1.55;;;;;;;9.45;68.75;99372.69;10312159;28;20049;-86
2023/11/09 07:47:18;;;;;;;4.32;1.17;;;;;;;9.33;69.47;99378.56;10323795;28;20497;-85
2023/11/09 07:52:20;;;;;;;2.80;0.85;;;;;;;9.19;70.10;99376.78;10367948;28;20047;-86
2023/11/09 07:57:22;;;;;;;2.78;0.70;;;;;;;9.17;70.20;99381.50;10368932;28;20090;-85
2023/11/09 08:02:24;;;;;;;3.38;1.20;;;;;;;9.11;70.48;99369.69;10362681;28;20053;-85
2023/11/09 08:07:26;;;;;;;3.70;1.13;;;;;;;9.12;70.99;99378.53;10359903;28;20125;-84
2023/11/09 08:12:28;;;;;;;4.53;1.17;;;;;;;9.11;71.22;99375.03;10358570;28;20046;-88
2023/11/09 08:17:29;;;;;;;3.63;0.98;;;;;;;9.10;72.16;99375.22;10353659;28;20122;-89
2023/11/09 08:22:32;;;;;;;6.90;1.42;;;;;;;9.19;72.17;99370.59;10345256;28;20081;-89
2023/11/09 08:27:37;;;;;;;2.70;1.27;;;;;;;9.24;72.37;99371.69;10329690;28;20053;-88
2023/11/09 08:32:41;;;;;;;5.85;1.25;;;;;;;9.25;73.24;99380.53;10353386;28;20723;-88
2023/11/09 08:37:43;;;;;;;4.50;1.00;;;;;;;9.30;73.26;99375.41;10327119;28;20050;-88
2023/11/09 08:42:48;;;;;;;9.93;1.60;;;;;;;9.39;73.20;99379.63;10349070;28;20057;-88
2023/11/09 08:47:54;;;;;;;2.58;0.80;;;;;;;9.43;73.39;99386.28;10319197;28;20062;-87
2023/11/09 08:52:55;;;;;;;3.92;1.42;;;;;;;9.60;73.28;99386.03;10332552;28;20131;-89
2023/11/09 08:57:58;;;;;;;6.43;1.38;;;;;;;9.82;72.89;99376.91;10325586;28;20037;-89
2023/11/09 09:03:01;;;;;;;1.25;0.68;;;;;;;9.84;73.00;99384.75;10344981;28;20065;-89
2023/11/09 09:08:03;;;;;;;3.00;1.25;;;;;;;9.78;73.67;99377.50;10330444;28;20049;-88
2023/11/09 09:13:10;;;;;;;5.97;1.20;;;;;;;9.79;73.46;99371.09;10343402;28;20108;-90
2023/11/09 09:18:11;;;;;;;4.13;1.10;;;;;;;9.81;73.56;99361.00;10317483;28;20442;-88
2023/11/09 09:23:13;;;;;;;2.60;0.88;;;;;;;9.73;73.75;99361.97;10354841;28;20046;-83
2023/11/09 09:28:14;;;;;;;1.48;0.77;;;;;;;9.79;73.49;99350.44;10326779;28;20069;-84
2023/11/09 09:33:17;;;;;;;4.43;0.77;;;;;;;9.99;73.47;99345.22;10359835;28;20501;-84
2023/11/09 09:38:21;;;;;;;4.63;1.20;;;;;;;10.00;73.36;99348.75;10363752;28;20130;-84
2023/11/09 09:43:22;;;;;;;1.90;0.70;;;;;;;10.02;73.04;99360.94;10348242;28;20050;-83
2023/11/09 09:48:27;;;;;;;3.22;1.00;;;;;;;10.06;72.91;99358.69;10350503;28;20057;-84
2023/11/09 09:53:30;;;;;;;3.05;0.90;;;;;;;10.03;73.02;99357.22;10362462;28;20078;-84
2023/11/09 09:58:34;;;;;;;3.63;1.15;;;;;;;10.11;73.09;99356.22;10361237;28;20050;-85
2023/11/09 10:03:37;;;;;;;4.93;1.15;;;;;;;10.12;72.64;99353.34;10359004;28;20062;-84
2023/11/09 10:08:40;;;;;;;2.08;0.88;;;;;;;10.19;72.93;99355.22;10320623;28;20077;-85
2023/11/09 10:13:45;;;;;;;3.63;0.82;;;;;;;10.29;72.77;99343.13;10349358;28;20050;-83
2023/11/09 10:18:48;;;;;;;1.75;0.80;;;;;;;10.34;72.83;99342.53;10324453;28;20050;-83
2023/11/09 10:23:53;;;;;;;2.90;1.13;;;;;;;10.43;72.38;99332.47;10336097;28;20034;-84
2023/11/09 10:28:57;;;;;;;2.63;0.80;;;;;;;10.50;72.35;99326.09;10339591;28;20046;-83
2023/11/09 10:33:58;;;;;;;2.63;0.85;;;;;;;10.49;72.54;99319.06;10331307;28;20076;-86
2023/11/09 10:39:00;;;;;;;3.58;0.80;;;;;;;10.65;72.52;99320.56;10349266;28;20042;-86
2023/11/09 10:44:02;;;;;;;3.92;0.90;;;;;;;10.71;72.54;99314.38;10346373;28;20038;-86
2023/11/09 10:49:07;;;;;;;1.38;0.80;;;;;;;10.86;72.32;99303.47;10332557;28;20042;-86
2023/11/09 10:54:11;;;;;;;1.77;0.85;;;;;;;10.87;72.16;99302.41;10333148;28;20046;-87
2023/11/09 10:59:13;;;;;;;4.18;1.10;;;;;;;10.81;72.29;99297.03;10343137;28;20080;-89
2023/11/09 11:04:18;;;;;;;2.25;0.82;;;;;;;11.01;72.28;99284.44;10364553;28;20145;-81
2023/11/09 11:09:26;;;;;;;6.20;0.80;;;;;;;11.01;72.41;99286.31;10347002;28;20604;-88
2023/11/09 11:14:32;;;;;;;2.25;0.80;;;;;;;10.99;72.80;99278.44;10358067;28;20055;-88
2023/11/09 11:19:59;;;;;;;2.90;0.90;;;;;;;11.09;72.87;99270.78;10351177;28;20128;-88
2023/11/09 11:25:28;;;;;;;1.77;0.60;;;;;;;11.10;72.45;99268.94;10360593;28;20170;-88
2023/11/09 11:30:39;;;;;;;2.50;0.77;;;;;;;11.00;73.26;99253.22;10365832;23;20030;-73
2023/11/09 11:35:52;;;;;;;5.90;0.77;;;;;;;11.03;73.17;99257.34;10358119;28;20042;-74
2023/11/09 11:41:22;;;;;;;1.98;0.80;;;;;;;11.08;73.38;99255.69;10356569;28;20050;-73
2023/11/09 11:46:26;;;;;;;4.05;1.80;;;;;;;11.19;73.11;99250.72;10354782;28;20046;-76
2023/11/09 11:51:30;;;;;;;1.58;0.73;;;;;;;11.17;73.75;99242.84;10338820;28;20621;-74
2023/11/09 11:56:32;;;;;;;1.98;1.13;;;;;;;11.27;73.25;99237.06;10321897;28;20077;-77
2023/11/09 12:01:35;;;;;;;3.83;1.40;;;;;;;11.26;73.66;99230.88;10316248;28;20042;-74
2023/11/09 12:06:37;;;;;;;5.65;0.90;;;;;;;11.25;74.22;99237.25;10320104;28;20034;-74
2023/11/09 12:11:47;;;;;;;1.70;1.00;;;;;;;11.37;73.59;99226.69;10323402;28;20137;-75
2023/11/09 12:16:49;;;;;;;3.83;0.70;;;;;;;11.38;73.69;99224.84;10297457;28;20409;-75
2023/11/09 12:21:51;;;;;;;3.63;0.52;;;;;;;11.37;74.06;99217.81;10310942;28;20509;-73
2023/11/09 12:27:10;;;;;;;1.35;0.50;;;;;;;11.41;74.22;99216.34;10317687;28;20072;-75
2023/11/09 12:32:12;;;;;;;1.13;0.63;;;;;;;11.43;74.06;99211.59;10324573;28;20052;-77
2023/11/09 12:37:17;;;;;;;0.77;0.40;;;;;;;11.37;74.10;99209.72;10321965;28;20562;-76
2023/11/09 12:42:24;;;;;;;1.38;0.52;;;;;;;11.32;74.89;99203.13;10319810;28;20046;-75
2023/11/09 12:47:30;;;;;;;2.25;0.63;;;;;;;11.31;74.58;99195.25;10317492;28;20519;-74
2023/11/09 12:52:34;;;;;;;0.80;0.47;;;;;;;11.29;75.25;99191.94;10315713;28;20556;-73
2023/11/09 12:57:41;;;;;;;2.17;0.60;;;;;;;11.35;75.47;99179.53;10320013;28;20141;-72
2023/11/09 13:02:42;;;;;;;1.02;0.40;;;;;;;11.34;75.70;99175.19;10318277;28;20051;-72
2023/11/09 13:07:46;;;;;;;2.42;0.55;;;;;;;11.39;75.45;99168.13;10319337;28;20497;-72
2023/11/09 13:12:48;;;;;;;2.58;0.45;;;;;;;11.36;76.08;99159.66;10296814;28;20335;-72
2023/11/09 13:17:50;;;;;;;1.80;0.60;;;;;;;11.61;75.73;99146.31;10301597;28;20579;-72
2023/11/09 13:22:56;;;;;;;4.35;0.60;;;;;;;11.75;76.04;99133.63;10318859;28;20146;-73
2023/11/09 13:27:59;;;;;;;2.60;0.75;;;;;;;11.96;76.00;99135.25;10315449;28;20047;-72
2023/11/09 13:33:14;;;;;;;2.28;0.60;;;;;;;12.02;75.74;99139.75;10319714;28;20274;-69
2023/11/09 13:38:29;;;;;;;1.25;0.50;;;;;;;12.08;75.81;99139.75;10318404;28;20100;-69
2023/11/09 13:43:34;;;;;;;1.85;0.55;;;;;;;12.06;75.61;99136.41;10299867;28;20058;-68
2023/11/09 13:48:43;;;;;;;3.28;0.95;;;;;;;12.16;75.73;99137.81;10320527;28;20046;-70
2023/11/09 13:53:50;;;;;;;2.28;0.60;;;;;;;12.24;75.28;99142.94;10322355;28;20061;-71
2023/11/09 13:58:53;;;;;;;3.92;0.47;;;;;;;12.23;75.49;99136.75;10314976;28;20057;-71
2023/11/09 14:03:55;;;;;;;1.83;0.80;;;;;;;12.28;75.18;99128.00;10301954;28;20042;-71
2023/11/09 14:08:58;;;;;;;1.83;0.80;;;;;;;12.40;75.30;99125.44;10328127;28;20126;-69
2023/11/09 14:14:05;;;;;;;0.68;0.50;;;;;;;12.43;74.89;99128.53;10315267;28;20050;-71
2023/11/09 14:19:20;;;;;;;1.55;0.50;;;;;;;12.36;75.08;99132.31;10323132;28;20057;-70
2023/11/09 14:24:23;;;;;;;1.92;0.47;;;;;;;12.43;74.95;99131.22;10301377;28;20042;-71
2023/11/09 14:29:25;;;;;;;1.30;0.50;;;;;;;12.47;75.23;99124.34;10313431;28;20663;-71
2023/11/09 14:34:27;;;;;;;6.10;1.17;;;;;;;12.40;75.24;99133.53;10331216;28;20053;-70
2023/11/09 14:39:36;;;;;;;1.15;0.40;;;;;;;12.41;74.70;99127.91;10326488;28;20712;-74
2023/11/09 14:44:41;;;;;;;1.23;0.40;;;;;;;12.20;75.40;99144.44;10292447;28;20097;-74
2023/11/09 14:49:49;;;;;;;0.80;0.40;;;;;;;12.19;75.43;99150.88;10286811;28;20102;-73
2023/11/09 14:54:51;;;;;;;1.65;0.40;;;;;;;12.01;76.22;99159.69;10284504;28;20039;-74
2023/11/09 14:59:52;;;;;;;1.02;0.50;;;;;;;11.77;77.11;99164.72;10265891;28;20043;-73
2023/11/09 15:04:54;;;;;;;1.08;0.30;;;;;;;11.74;77.11;99164.31;10278693;28;20054;-73
2023/11/09 15:10:00;;;;;;;1.08;0.50;;;;;;;11.65;77.03;99167.25;10293753;28;20456;-73
2023/11/09 15:15:01;;;;;;;1.65;0.28;;;;;;;11.57;77.08;99167.47;10283348;28;20121;-73
2023/11/09 15:20:21;;;;;;;4.55;0.50;;;;;;;11.51;77.67;99158.38;10285075;28;20039;-73
2023/11/09 15:25:24;;;;;;;1.10;0.50;;;;;;;11.52;77.66;99157.31;10296126;28;20057;-71
2023/11/09 15:30:29;;;;;;;1.20;0.50;;;;;;;11.55;77.45;99155.25;10271159;28;20045;-73
2023/11/09 15:35:31;;;;;;;3.25;0.70;;;;;;;11.55;77.50;99147.19;10304435;28;20093;-75
2023/11/09 15:40:33;;;;;;;2.92;0.55;;;;;;;11.49;77.75;99144.31;10303576;28;20525;-74
2023/11/09 15:45:55;;;;;;;2.83;0.45;;;;;;;11.43;77.29;99141.63;10324438;28;20065;-73
2023/11/09 15:50:57;;;;;;;2.25;0.30;;;;;;;11.28;77.56;99136.50;10323285;28;20054;-78
2023/11/09 15:55:59;;;;;;;6.53;0.30;;;;;;;11.22;77.72;99134.66;10303626;28;20548;-77
2023/11/09 16:01:01;;;;;;;3.40;0.50;;;;;;;11.11;77.92;99142.31;10334463;28;20124;-77
2023/11/09 16:06:04;;;;;;;3.72;0.40;;;;;;;11.16;77.75;99152.47;10325989;28;20049;-75
2023/11/09 16:11:07;;;;;;;3.30;0.40;;;;;;;11.22;77.23;99148.94;10324252;28;20038;-76
2023/11/09 16:16:10;;;;;;;7.68;0.60;;;;;;;11.22;76.92;99148.94;10322526;28;20472;-76
2023/11/09 16:21:12;;;;;;;2.10;0.70;;;;;;;11.32;76.67;99151.19;10313014;28;20050;-76
2023/11/09 16:26:15;;;;;;;2.30;0.50;;;;;;;11.47;76.45;99156.31;10322752;28;20046;-76
2023/11/09 16:31:17;;;;;;;3.80;0.60;;;;;;;11.33;76.94;99144.75;10323208;28;20049;-76
2023/11/09 16:36:18;;;;;;;4.93;0.63;;;;;;;11.28;76.86;99136.50;10308329;28;20153;-74
2023/11/09 16:41:21;;;;;;;4.05;0.70;;;;;;;11.29;76.89;99130.06;10327867;28;20072;-74
2023/11/09 16:46:23;;;;;;;4.20;1.10;;;;;;;11.24;76.87;99136.09;10314181;28;20050;-74
2023/11/09 16:51:25;;;;;;;5.18;0.70;;;;;;;11.26;77.00;99120.56;10327281;28;20146;-74
2023/11/09 16:56:26;;;;;;;5.43;0.80;;;;;;;11.27;76.44;99116.00;10309523;28;20129;-74
2023/11/09 17:01:28;;;;;;;1.52;0.70;;;;;;;11.19;76.73;99110.88;10330794;28;20049;-75
2023/11/09 17:06:29;;;;;;;3.90;0.60;;;;;;;11.17;76.32;99110.25;10325521;28;20065;-76
2023/11/09 17:11:31;;;;;;;4.00;0.85;;;;;;;11.20;76.69;99109.84;10314358;28;20039;-77
2023/11/09 17:16:32;;;;;;;4.18;0.90;;;;;;;11.19;76.20;99116.25;10327045;28;20049;-77
2023/11/09 17:21:34;;;;;;;6.72;1.30;;;;;;;11.17;75.64;99119.13;10322300;28;20045;-75
2023/11/09 17:26:36;;;;;;;6.28;0.50;;;;;;;11.11;76.15;99126.16;10333831;28;20053;-77
2023/11/09 17:31:38;;;;;;;8.43;1.02;;;;;;;11.07;75.74;99130.31;10328382;28;20044;-78
2023/11/09 17:36:41;;;;;;;5.35;1.10;;;;;;;11.05;75.67;99120.81;10303631;28;20050;-77
2023/11/09 17:41:43;;;;;;;8.68;1.88;;;;;;;11.00;75.38;99134.06;10305260;28;20121;-75
2023/11/09 17:46:44;;;;;;;6.47;1.00;;;;;;;10.98;75.55;99125.38;10324388;28;20050;-74
2023/11/09 17:51:47;;;;;;;5.43;0.77;;;;;;;10.96;75.04;99140.88;10314806;28;20058;-63
2023/11/09 17:56:49;;;;;;;5.28;1.10;;;;;;;10.99;74.80;99137.78;10315347;28;20034;-63
2023/11/09 18:01:51;;;;;;;2.88;0.50;;;;;;;10.93;74.97;99144.00;10303070;28;20049;-62
2023/11/09 18:06:52;;;;;;;6.32;1.48;;;;;;;10.85;75.00;99134.28;10305226;28;20064;-63
2023/11/09 18:11:55;;;;;;;5.10;0.65;;;;;;;10.79;74.72;99135.13;10323470;28;20132;-62
2023/11/09 18:16:58;;;;;;;8.05;1.52;;;;;;;10.74;74.88;99142.97;10316523;28;20100;-62
2023/11/09 18:22:05;;;;;;;4.57;0.63;;;;;;;10.73;74.25;99134.09;10328868;28;20133;-61
2023/11/09 18:27:06;;;;;;;2.83;0.50;;;;;;;10.71;74.65;99130.78;10331316;28;20054;-63
2023/11/09 18:32:09;;;;;;;3.83;1.10;;;;;;;10.70;74.22;99126.41;10327593;28;20042;-62
2023/11/09 18:37:11;;;;;;;1.85;0.57;;;;;;;10.61;74.80;99114.25;10311101;28;20078;-61
2023/11/09 18:42:16;;;;;;;2.00;0.70;;;;;;;10.58;74.36;99117.34;10332138;28;20042;-63
2023/11/09 18:47:17;;;;;;;4.10;0.93;;;;;;;10.59;74.80;99119.00;10330185;28;20050;-63
2023/11/09 18:52:19;;;;;;;8.07;0.90;;;;;;;10.59;74.52;99108.25;10311913;28;20046;-62
2023/11/09 18:57:20;;;;;;;2.80;0.77;;;;;;;10.63;74.10;99107.63;10308145;28;20392;-62
2023/11/09 19:02:22;;;;;;;3.75;0.82;;;;;;;10.71;74.17;99096.66;10270816;28;20827;-62
2023/11/09 19:07:24;;;;;;;4.15;1.20;;;;;;;10.74;74.56;99094.59;10316939;28;20081;-61
2023/11/09 19:12:25;;;;;;;4.47;0.90;;;;;;;10.79;74.36;99074.13;10288172;28;20072;-62
2023/11/09 19:17:27;;;;;;;5.65;0.60;;;;;;;10.85;74.20;99073.28;10326640;28;20050;-61
2023/11/09 19:22:29;;;;;;;3.00;0.88;;;;;;;10.88;74.43;99061.28;10334682;28;20070;-63
2023/11/09 19:27:31;;;;;;;3.08;0.50;;;;;;;10.89;74.06;99053.00;10356257;28;20136;-63
2023/11/09 19:32:34;;;;;;;2.80;0.52;;;;;;;10.92;74.17;99057.16;10338311;28;20050;-62
2023/11/09 19:37:35;;;;;;;2.78;0.70;;;;;;;11.00;74.20;99040.78;10323669;28;20045;-62
2023/11/09 19:42:39;;;;;;;2.58;0.93;;;;;;;11.09;73.61;99034.13;10338322;28;20042;-62
2023/11/09 19:47:41;;;;;;;3.85;0.57;;;;;;;11.10;73.72;99026.91;10344494;28;20077;-63
2023/11/09 19:52:43;;;;;;;4.53;0.80;;;;;;;11.13;73.59;99025.63;10341685;28;20576;-63
2023/11/09 19:57:44;;;;;;;8.18;0.60;;;;;;;11.18;73.42;99004.31;10338894;28;20042;-62
2023/11/09 20:02:46;;;;;;;4.57;0.50;;;;;;;11.24;73.40;99000.78;10327855;28;20053;-62
2023/11/09 20:07:47;;;;;;;6.13;0.57;;;;;;;11.25;73.20;98987.09;10333247;28;20112;-62
2023/11/09 20:12:49;;;;;;;3.72;0.50;;;;;;;11.29;73.19;98991.03;10338345;28;20069;-62
2023/11/09 20:17:51;;;;;;;3.50;0.55;;;;;;;11.27;72.63;98981.50;10345736;28;20141;-62
2023/11/09 20:22:52;;;;;;;4.32;0.57;;;;;;;11.28;72.44;98985.88;10348514;28;20053;-62
2023/11/09 20:27:56;;;;;;;4.25;0.95;;;;;;;11.35;72.16;98964.28;10312965;28;20046;-62
2023/11/09 20:32:59;;;;;;;3.40;0.45;;;;;;;11.35;71.95;98966.97;10317199;28;20046;-63
2023/11/09 20:38:04;;;;;;;3.53;0.50;;;;;;;11.31;71.88;98959.38;10309214;28;20050;-63
2023/11/09 20:43:08;;;;;;;3.05;0.55;;;;;;;11.34;71.67;98957.28;10322085;28;20043;-63
2023/11/09 20:48:10;;;;;;;5.22;0.80;;;;;;;11.29;71.77;98944.44;10307946;28;20093;-63
2023/11/09 20:53:11;;;;;;;5.28;0.63;;;;;;;11.32;71.99;98952.94;10308369;28;20057;-61
2023/11/09 20:58:14;;;;;;;2.88;0.47;;;;;;;11.35;72.02;98951.66;10316348;28;20117;-62
2023/11/09 21:03:15;;;;;;;3.13;1.10;;;;;;;11.31;71.93;98939.69;10318618;28;20038;-61
2023/11/09 21:08:17;;;;;;;3.00;0.40;;;;;;;11.23;72.29;98951.50;10317345;28;20069;-61
2023/11/09 21:13:20;;;;;;;4.18;0.50;;;;;;;11.20;72.69;98941.19;10282613;28;20046;-61
2023/11/09 21:18:21;;;;;;;2.30;0.50;;;;;;;11.22;72.85;98932.94;10318892;28;20501;-61
2023/11/09 21:23:23;;;;;;;2.70;0.50;;;;;;;11.22;72.53;98933.75;10322555;28;20046;-61
2023/11/09 21:28:24;;;;;;;4.80;0.82;;;;;;;10.97;73.17;98924.75;10312731;28;20074;-60
2023/11/09 21:33:26;;;;;;;2.83;0.65;;;;;;;10.97;73.48;98912.13;10325505;28;20046;-61
2023/11/09 21:38:28;;;;;;;1.30;0.70;;;;;;;10.91;73.60;98913.81;10327467;28;20129;-60
2023/11/09 21:43:30;;;;;;;2.60;1.00;;;;;;;10.93;73.95;98902.03;10303471;28;20081;-61
2023/11/09 21:48:32;;;;;;;2.90;0.60;;;;;;;11.01;74.11;98893.72;10301767;28;20400;-61
2023/11/09 21:53:33;;;;;;;3.25;0.90;;;;;;;11.03;73.88;98891.63;10315161;28;20046;-61
2023/11/09 21:58:34;;;;;;;2.28;0.70;;;;;;;11.03;73.81;98879.00;10287190;28;20034;-61
2023/11/09 22:03:36;;;;;;;4.63;0.60;;;;;;;11.07;73.91;98880.22;10323280;28;20062;-61
2023/11/09 22:08:39;;;;;;;1.40;0.52;;;;;;;11.19;73.76;98863.41;10300183;28;20547;-62
2023/11/09 22:13:41;;;;;;;3.55;0.75;;;;;;;11.24;74.21;98852.84;10300979;28;20065;-60
2023/11/09 22:18:43;;;;;;;1.80;0.40;;;;;;;11.26;74.11;98853.44;10322787;28;20042;-62
2023/11/09 22:23:44;;;;;;;2.35;0.50;;;;;;;11.29;73.54;98872.66;10321989;28;20192;-61
2023/11/09 22:28:46;;;;;;;2.53;0.40;;;;;;;11.36;73.49;98858.34;10297553;28;20042;-61
2023/11/09 22:33:47;;;;;;;1.92;0.52;;;;;;;11.35;73.67;98864.75;10301370;28;20061;-63
2023/11/09 22:38:49;;;;;;;2.83;0.43;;;;;;;11.34;73.89;98873.88;10319933;28;20049;-62
2023/11/09 22:43:51;;;;;;;1.42;0.50;;;;;;;11.30;73.51;98884.25;10303985;28;20113;-62
2023/11/09 22:48:52;;;;;;;4.03;0.40;;;;;;;11.31;73.69;98875.97;10305171;28;20061;-60
2023/11/09 22:53:54;;;;;;;1.27;0.40;;;;;;;11.31;73.55;98870.59;10304761;28;20039;-60
2023/11/09 22:58:56;;;;;;;1.08;0.30;;;;;;;11.40;72.69;98899.91;10326568;28;20043;-60
2023/11/09 23:03:57;;;;;;;1.88;0.30;;;;;;;11.38;73.04;98899.31;10328457;28;20046;-59
2023/11/09 23:08:59;;;;;;;1.25;0.45;;;;;;;11.48;73.28;98896.94;10323632;28;20046;-60
2023/11/09 23:14:01;;;;;;;2.22;0.30;;;;;;;11.43;73.08;98889.53;10291719;28;20050;-60
2023/11/09 23:19:03;;;;;;;3.60;0.40;;;;;;;11.48;72.99;98891.56;10287787;28;20046;-60
2023/11/09 23:24:06;;;;;;;2.90;0.38;;;;;;;11.53;72.85;98875.56;10287478;28;20129;-59
2023/11/09 23:29:08;;;;;;;0.95;0.50;;;;;;;11.57;72.52;98873.28;10272365;28;20054;-59
2023/11/09 23:34:10;;;;;;;0.75;0.30;;;;;;;11.50;72.23;98866.09;10276390;28;20046;-60
2023/11/09 23:39:13;;;;;;;1.45;0.20;;;;;;;11.50;72.68;98858.00;10272025;28;20050;-60
2023/11/09 23:44:14;;;;;;;1.10;0.40;;;;;;;11.49;72.12;98851.00;10268057;28;20054;-60